sensor_id;sensor_type;location;lat;lon;timestamp;temperature;humidity
47114;DHT22;32867;51.556;6.832;2023-10-09T00:03:59;15.40;99.90
47114;DHT22;32867;51.556;6.832;2023-10-09T00:09:06;15.30;99.90
47114;DHT22;32867;51.556;6.832;2023-10-09T00:14:26;15.40;99.90
47114;DHT22;32867;51.556;6.832;2023-10-09T00:19:31;15.20;99.90
47114;DHT22;32867;51.556;6.832;2023-10-09T00:24:32;15.10;99.90
47114;DHT22;32867;51.556;6.832;2023-10-09T00:29:33;15.20;99.90
47114;DHT22;32867;51.556;6.832;2023-10-09T00:34:35;15.40;99.90
47114;DHT22;32867;51.556;6.832;2023-10-09T00:39:39;15.40;99.90
47114;DHT22;32867;51.556;6.832;2023-10-09T00:44:41;15.30;99.90
47114;DHT22;32867;51.556;6.832;2023-10-09T00:49:44;15.10;99.90
47114;DHT22;32867;51.556;6.832;2023-10-09T00:54:45;15.20;99.90
47114;DHT22;32867;51.556;6.832;2023-10-09T00:59:54;15.40;99.90
47114;DHT22;32867;51.556;6.832;2023-10-09T01:05:00;15.30;99.90
47114;DHT22;32867;51.556;6.832;2023-10-09T01:10:10;15.20;99.90
47114;DHT22;32867;51.556;6.832;2023-10-09T01:15:11;15.40;99.90
47114;DHT22;32867;51.556;6.832;2023-10-09T01:20:35;15.30;99.90
47114;DHT22;32867;51.556;6.832;2023-10-09T01:25:42;15.40;99.90
47114;DHT22;32867;51.556;6.832;2023-10-09T01:30:44;15.40;99.90
47114;DHT22;32867;51.556;6.832;2023-10-09T01:35:46;15.30;99.90
47114;DHT22;32867;51.556;6.832;2023-10-09T01:40:49;15.40;99.90
47114;DHT22;32867;51.556;6.832;2023-10-09T01:45:52;15.30;99.90
47114;DHT22;32867;51.556;6.832;2023-10-09T01:50:52;15.50;99.90
47114;DHT22;32867;51.556;6.832;2023-10-09T01:55:54;15.40;99.90
47114;DHT22;32867;51.556;6.832;2023-10-09T02:00:55;15.30;99.90
47114;DHT22;32867;51.556;6.832;2023-10-09T02:05:56;15.30;99.90
47114;DHT22;32867;51.556;6.832;2023-10-09T02:11:00;15.20;99.90
47114;DHT22;32867;51.556;6.832;2023-10-09T02:16:03;15.20;99.90
47114;DHT22;32867;51.556;6.832;2023-10-09T02:21:16;15.40;99.90
47114;DHT22;32867;51.556;6.832;2023-10-09T02:26:18;15.30;99.90
47114;DHT22;32867;51.556;6.832;2023-10-09T02:31:27;15.30;99.90
47114;DHT22;32867;51.556;6.832;2023-10-09T02:36:39;15.30;99.90
47114;DHT22;32867;51.556;6.832;2023-10-09T02:41:58;15.40;99.90
47114;DHT22;32867;51.556;6.832;2023-10-09T02:47:03;15.60;99.90
47114;DHT22;32867;51.556;6.832;2023-10-09T02:52:06;15.80;99.90
47114;DHT22;32867;51.556;6.832;2023-10-09T02:57:11;15.70;99.90
47114;DHT22;32867;51.556;6.832;2023-10-09T03:02:22;15.70;99.90
47114;DHT22;32867;51.556;6.832;2023-10-09T03:07:24;15.60;99.90
47114;DHT22;32867;51.556;6.832;2023-10-09T03:12:25;15.70;99.90
47114;DHT22;32867;51.556;6.832;2023-10-09T03:17:28;15.90;99.90
47114;DHT22;32867;51.556;6.832;2023-10-09T03:22:29;15.90;99.90
47114;DHT22;32867;51.556;6.832;2023-10-09T03:27:31;16.00;99.90
47114;DHT22;32867;51.556;6.832;2023-10-09T03:32:31;15.90;99.90
47114;DHT22;32867;51.556;6.832;2023-10-09T03:37:32;16.10;99.90
47114;DHT22;32867;51.556;6.832;2023-10-09T03:42:36;16.10;99.90
47114;DHT22;32867;51.556;6.832;2023-10-09T03:47:37;16.20;99.90
47114;DHT22;32867;51.556;6.832;2023-10-09T03:52:38;16.10;99.90
47114;DHT22;32867;51.556;6.832;2023-10-09T03:57:40;16.10;99.90
47114;DHT22;32867;51.556;6.832;2023-10-09T04:02:41;16.10;99.90
47114;DHT22;32867;51.556;6.832;2023-10-09T04:07:42;16.00;99.90
47114;DHT22;32867;51.556;6.832;2023-10-09T04:12:43;16.10;99.90
47114;DHT22;32867;51.556;6.832;2023-10-09T04:17:43;16.10;99.90
47114;DHT22;32867;51.556;6.832;2023-10-09T04:22:44;16.00;99.90
47114;DHT22;32867;51.556;6.832;2023-10-09T04:27:52;16.00;99.90
47114;DHT22;32867;51.556;6.832;2023-10-09T04:32:53;15.90;99.90
47114;DHT22;32867;51.556;6.832;2023-10-09T04:38:00;15.80;99.90
47114;DHT22;32867;51.556;6.832;2023-10-09T04:43:06;15.90;99.90
47114;DHT22;32867;51.556;6.832;2023-10-09T04:48:07;15.90;99.90
47114;DHT22;32867;51.556;6.832;2023-10-09T04:53:08;16.00;99.90
47114;DHT22;32867;51.556;6.832;2023-10-09T04:58:14;15.80;99.90
47114;DHT22;32867;51.556;6.832;2023-10-09T05:03:24;15.70;99.90
47114;DHT22;32867;51.556;6.832;2023-10-09T05:08:28;15.90;99.90
47114;DHT22;32867;51.556;6.832;2023-10-09T05:13:32;16.10;99.90
47114;DHT22;32867;51.556;6.832;2023-10-09T05:18:39;15.90;99.90
47114;DHT22;32867;51.556;6.832;2023-10-09T05:23:42;15.80;99.90
47114;DHT22;32867;51.556;6.832;2023-10-09T05:29:23;15.80;99.90
47114;DHT22;32867;51.556;6.832;2023-10-09T05:34:33;15.70;99.90
47114;DHT22;32867;51.556;6.832;2023-10-09T05:39:34;15.70;99.90
47114;DHT22;32867;51.556;6.832;2023-10-09T05:44:41;15.80;99.90
47114;DHT22;32867;51.556;6.832;2023-10-09T05:50:00;15.90;99.90
47114;DHT22;32867;51.556;6.832;2023-10-09T05:55:13;15.80;99.90
47114;DHT22;32867;51.556;6.832;2023-10-09T06:00:33;15.80;99.90
47114;DHT22;32867;51.556;6.832;2023-10-09T06:05:54;15.80;99.90
47114;DHT22;32867;51.556;6.832;2023-10-09T06:10:57;15.80;99.90
47114;DHT22;32867;51.556;6.832;2023-10-09T06:16:27;15.90;99.90
47114;DHT22;32867;51.556;6.832;2023-10-09T06:21:39;16.00;99.90
47114;DHT22;32867;51.556;6.832;2023-10-09T06:27:00;16.10;99.90
47114;DHT22;32867;51.556;6.832;2023-10-09T06:32:07;16.20;99.90
47114;DHT22;32867;51.556;6.832;2023-10-09T06:37:26;16.20;99.90
47114;DHT22;32867;51.556;6.832;2023-10-09T06:42:35;16.10;99.90
47114;DHT22;32867;51.556;6.832;2023-10-09T06:47:38;16.20;99.90
47114;DHT22;32867;51.556;6.832;2023-10-09T06:52:42;16.20;99.90
47114;DHT22;32867;51.556;6.832;2023-10-09T06:58:06;16.00;99.90
47114;DHT22;32867;51.556;6.832;2023-10-09T07:03:10;16.00;99.90
47114;DHT22;32867;51.556;6.832;2023-10-09T07:08:14;16.00;99.90
47114;DHT22;32867;51.556;6.832;2023-10-09T07:13:37;16.10;99.90
47114;DHT22;32867;51.556;6.832;2023-10-09T07:18:37;16.20;99.90
47114;DHT22;32867;51.556;6.832;2023-10-09T07:23:49;16.20;99.90
47114;DHT22;32867;51.556;6.832;2023-10-09T07:28:56;16.10;99.90
47114;DHT22;32867;51.556;6.832;2023-10-09T07:34:13;16.30;99.90
47114;DHT22;32867;51.556;6.832;2023-10-09T07:39:46;16.60;99.90
47114;DHT22;32867;51.556;6.832;2023-10-09T07:44:57;16.30;99.90
47114;DHT22;32867;51.556;6.832;2023-10-09T07:49:58;16.30;99.90
47114;DHT22;32867;51.556;6.832;2023-10-09T07:55:01;16.20;99.90
47114;DHT22;32867;51.556;6.832;2023-10-09T08:00:07;16.40;99.90
47114;DHT22;32867;51.556;6.832;2023-10-09T08:05:30;16.30;99.90
47114;DHT22;32867;51.556;6.832;2023-10-09T08:10:33;16.20;99.90
47114;DHT22;32867;51.556;6.832;2023-10-09T08:15:57;16.30;99.90
47114;DHT22;32867;51.556;6.832;2023-10-09T08:21:02;16.30;99.90
47114;DHT22;32867;51.556;6.832;2023-10-09T08:26:03;16.30;99.90
47114;DHT22;32867;51.556;6.832;2023-10-09T08:31:16;16.50;99.90
47114;DHT22;32867;51.556;6.832;2023-10-09T08:36:20;16.30;99.90
47114;DHT22;32867;51.556;6.832;2023-10-09T08:41:23;16.50;99.90
47114;DHT22;32867;51.556;6.832;2023-10-09T08:46:30;16.60;99.90
47114;DHT22;32867;51.556;6.832;2023-10-09T08:51:32;16.90;99.90
47114;DHT22;32867;51.556;6.832;2023-10-09T08:56:35;17.20;99.90
47114;DHT22;32867;51.556;6.832;2023-10-09T09:01:36;17.20;99.90
47114;DHT22;32867;51.556;6.832;2023-10-09T09:06:38;17.30;99.90
47114;DHT22;32867;51.556;6.832;2023-10-09T09:11:42;17.00;99.90
47114;DHT22;32867;51.556;6.832;2023-10-09T09:16:53;17.40;99.90
47114;DHT22;32867;51.556;6.832;2023-10-09T09:21:57;17.50;99.90
47114;DHT22;32867;51.556;6.832;2023-10-09T09:27:03;17.40;99.90
47114;DHT22;32867;51.556;6.832;2023-10-09T09:32:16;17.40;99.90
47114;DHT22;32867;51.556;6.832;2023-10-09T09:37:25;17.90;99.90
47114;DHT22;32867;51.556;6.832;2023-10-09T09:42:32;17.90;99.90
47114;DHT22;32867;51.556;6.832;2023-10-09T09:47:35;17.60;99.90
47114;DHT22;32867;51.556;6.832;2023-10-09T09:52:38;17.30;99.90
47114;DHT22;32867;51.556;6.832;2023-10-09T09:57:40;17.40;99.90
47114;DHT22;32867;51.556;6.832;2023-10-09T10:02:42;17.50;99.90
47114;DHT22;32867;51.556;6.832;2023-10-09T10:07:43;17.70;99.90
47114;DHT22;32867;51.556;6.832;2023-10-09T10:12:49;17.60;99.90
47114;DHT22;32867;51.556;6.832;2023-10-09T10:23:17;17.80;99.90
47114;DHT22;32867;51.556;6.832;2023-10-09T10:28:26;17.70;99.90
47114;DHT22;32867;51.556;6.832;2023-10-09T10:39:02;17.90;99.90
47114;DHT22;32867;51.556;6.832;2023-10-09T10:44:08;18.10;99.90
47114;DHT22;32867;51.556;6.832;2023-10-09T10:49:28;17.90;99.90
47114;DHT22;32867;51.556;6.832;2023-10-09T10:54:38;18.10;99.90
47114;DHT22;32867;51.556;6.832;2023-10-09T10:59:39;18.50;99.90
47114;DHT22;32867;51.556;6.832;2023-10-09T11:04:45;18.50;99.90
47114;DHT22;32867;51.556;6.832;2023-10-09T11:09:54;18.40;99.90
47114;DHT22;32867;51.556;6.832;2023-10-09T11:15:10;18.50;99.90
47114;DHT22;32867;51.556;6.832;2023-10-09T11:20:23;18.30;99.90
47114;DHT22;32867;51.556;6.832;2023-10-09T11:25:26;18.40;99.90
47114;DHT22;32867;51.556;6.832;2023-10-09T11:30:33;18.60;99.90
47114;DHT22;32867;51.556;6.832;2023-10-09T11:35:34;18.50;99.90
47114;DHT22;32867;51.556;6.832;2023-10-09T11:40:36;18.70;99.90
47114;DHT22;32867;51.556;6.832;2023-10-09T11:46:10;18.80;99.90
47114;DHT22;32867;51.556;6.832;2023-10-09T11:51:33;18.90;99.90
47114;DHT22;32867;51.556;6.832;2023-10-09T11:56:38;19.20;99.90
47114;DHT22;32867;51.556;6.832;2023-10-09T12:01:39;19.20;99.90
47114;DHT22;32867;51.556;6.832;2023-10-09T12:06:43;19.00;99.90
47114;DHT22;32867;51.556;6.832;2023-10-09T12:11:44;19.20;99.90
47114;DHT22;32867;51.556;6.832;2023-10-09T12:16:53;19.20;99.90
47114;DHT22;32867;51.556;6.832;2023-10-09T12:21:54;19.30;99.90
47114;DHT22;32867;51.556;6.832;2023-10-09T12:26:55;19.50;99.90
47114;DHT22;32867;51.556;6.832;2023-10-09T12:31:59;19.20;99.90
47114;DHT22;32867;51.556;6.832;2023-10-09T12:36:59;19.40;99.90
47114;DHT22;32867;51.556;6.832;2023-10-09T12:42:01;19.40;99.90
47114;DHT22;32867;51.556;6.832;2023-10-09T12:47:07;19.60;99.90
47114;DHT22;32867;51.556;6.832;2023-10-09T12:52:08;19.30;99.90
47114;DHT22;32867;51.556;6.832;2023-10-09T12:57:16;19.40;99.90
47114;DHT22;32867;51.556;6.832;2023-10-09T13:02:17;19.80;99.90
47114;DHT22;32867;51.556;6.832;2023-10-09T13:07:30;19.60;99.90
47114;DHT22;32867;51.556;6.832;2023-10-09T13:12:31;19.70;99.90
47114;DHT22;32867;51.556;6.832;2023-10-09T13:17:31;19.70;99.90
47114;DHT22;32867;51.556;6.832;2023-10-09T13:22:32;20.00;99.90
47114;DHT22;32867;51.556;6.832;2023-10-09T13:27:33;20.40;99.90
47114;DHT22;32867;51.556;6.832;2023-10-09T13:32:34;20.20;99.90
47114;DHT22;32867;51.556;6.832;2023-10-09T13:37:36;20.40;99.90
47114;DHT22;32867;51.556;6.832;2023-10-09T13:42:38;20.50;99.90
47114;DHT22;32867;51.556;6.832;2023-10-09T13:47:39;20.50;99.90
47114;DHT22;32867;51.556;6.832;2023-10-09T13:52:39;20.10;99.90
47114;DHT22;32867;51.556;6.832;2023-10-09T13:57:40;20.10;99.90
47114;DHT22;32867;51.556;6.832;2023-10-09T14:02:43;20.20;99.90
47114;DHT22;32867;51.556;6.832;2023-10-09T14:07:45;20.10;99.90
47114;DHT22;32867;51.556;6.832;2023-10-09T14:12:46;20.10;99.90
47114;DHT22;32867;51.556;6.832;2023-10-09T14:17:46;20.20;99.90
47114;DHT22;32867;51.556;6.832;2023-10-09T14:22:47;20.00;99.90
47114;DHT22;32867;51.556;6.832;2023-10-09T14:27:52;20.10;99.90
47114;DHT22;32867;51.556;6.832;2023-10-09T14:32:54;19.90;99.90
47114;DHT22;32867;51.556;6.832;2023-10-09T14:37:56;19.90;99.90
47114;DHT22;32867;51.556;6.832;2023-10-09T14:42:57;19.80;99.90
47114;DHT22;32867;51.556;6.832;2023-10-09T14:47:58;19.70;99.90
47114;DHT22;32867;51.556;6.832;2023-10-09T14:53:00;19.60;99.90
47114;DHT22;32867;51.556;6.832;2023-10-09T14:58:01;19.60;99.90
47114;DHT22;32867;51.556;6.832;2023-10-09T15:03:03;19.60;99.90
47114;DHT22;32867;51.556;6.832;2023-10-09T15:08:04;19.60;99.90
47114;DHT22;32867;51.556;6.832;2023-10-09T15:13:11;19.60;99.90
47114;DHT22;32867;51.556;6.832;2023-10-09T15:18:13;19.50;99.90
47114;DHT22;32867;51.556;6.832;2023-10-09T15:23:14;19.50;99.90
47114;DHT22;32867;51.556;6.832;2023-10-09T15:28:16;19.60;99.90
47114;DHT22;32867;51.556;6.832;2023-10-09T15:33:18;19.50;99.90
47114;DHT22;32867;51.556;6.832;2023-10-09T15:38:19;19.50;99.90
47114;DHT22;32867;51.556;6.832;2023-10-09T15:43:20;19.60;99.90
47114;DHT22;32867;51.556;6.832;2023-10-09T15:48:20;19.60;99.90
47114;DHT22;32867;51.556;6.832;2023-10-09T15:53:21;19.50;99.90
47114;DHT22;32867;51.556;6.832;2023-10-09T15:58:22;19.50;99.90
47114;DHT22;32867;51.556;6.832;2023-10-09T16:03:24;19.40;99.90
47114;DHT22;32867;51.556;6.832;2023-10-09T16:08:25;19.50;99.90
47114;DHT22;32867;51.556;6.832;2023-10-09T16:13:27;19.50;99.90
47114;DHT22;32867;51.556;6.832;2023-10-09T16:18:28;19.40;99.90
47114;DHT22;32867;51.556;6.832;2023-10-09T16:23:29;19.40;99.90
47114;DHT22;32867;51.556;6.832;2023-10-09T16:28:31;19.30;99.90
47114;DHT22;32867;51.556;6.832;2023-10-09T16:33:33;19.30;99.90
47114;DHT22;32867;51.556;6.832;2023-10-09T16:38:34;19.20;99.90
47114;DHT22;32867;51.556;6.832;2023-10-09T16:43:39;19.20;99.90
47114;DHT22;32867;51.556;6.832;2023-10-09T16:48:43;19.20;99.90
47114;DHT22;32867;51.556;6.832;2023-10-09T16:53:46;19.00;99.90
47114;DHT22;32867;51.556;6.832;2023-10-09T16:58:52;19.10;99.90
47114;DHT22;32867;51.556;6.832;2023-10-09T17:03:53;19.20;99.90
47114;DHT22;32867;51.556;6.832;2023-10-09T17:08:58;19.20;99.90
47114;DHT22;32867;51.556;6.832;2023-10-09T17:14:00;19.10;99.90
47114;DHT22;32867;51.556;6.832;2023-10-09T17:19:01;19.00;99.90
47114;DHT22;32867;51.556;6.832;2023-10-09T17:24:02;18.90;99.90
47114;DHT22;32867;51.556;6.832;2023-10-09T17:29:04;18.90;99.90
47114;DHT22;32867;51.556;6.832;2023-10-09T17:34:05;18.80;99.90
47114;DHT22;32867;51.556;6.832;2023-10-09T17:39:09;18.80;99.90
47114;DHT22;32867;51.556;6.832;2023-10-09T17:44:13;18.70;99.90
47114;DHT22;32867;51.556;6.832;2023-10-09T17:49:15;18.60;99.90
47114;DHT22;32867;51.556;6.832;2023-10-09T17:54:16;18.70;99.90
47114;DHT22;32867;51.556;6.832;2023-10-09T17:59:16;18.70;99.90
47114;DHT22;32867;51.556;6.832;2023-10-09T18:04:18;18.60;99.90
47114;DHT22;32867;51.556;6.832;2023-10-09T18:09:19;18.60;99.90
47114;DHT22;32867;51.556;6.832;2023-10-09T18:14:20;18.60;99.90
47114;DHT22;32867;51.556;6.832;2023-10-09T18:19:20;18.60;99.90
47114;DHT22;32867;51.556;6.832;2023-10-09T18:24:21;18.60;99.90
47114;DHT22;32867;51.556;6.832;2023-10-09T18:29:23;18.70;99.90
47114;DHT22;32867;51.556;6.832;2023-10-09T18:34:24;18.60;99.90
47114;DHT22;32867;51.556;6.832;2023-10-09T18:39:26;18.60;99.90
47114;DHT22;32867;51.556;6.832;2023-10-09T18:44:30;18.60;99.90
47114;DHT22;32867;51.556;6.832;2023-10-09T18:49:31;18.50;99.90
47114;DHT22;32867;51.556;6.832;2023-10-09T18:54:32;18.40;99.90
47114;DHT22;32867;51.556;6.832;2023-10-09T18:59:36;18.30;99.90
47114;DHT22;32867;51.556;6.832;2023-10-09T19:04:37;18.30;99.90
47114;DHT22;32867;51.556;6.832;2023-10-09T19:09:37;18.20;99.90
47114;DHT22;32867;51.556;6.832;2023-10-09T19:14:38;18.10;99.90
47114;DHT22;32867;51.556;6.832;2023-10-09T19:19:38;18.20;99.90
47114;DHT22;32867;51.556;6.832;2023-10-09T19:24:39;18.20;99.90
47114;DHT22;32867;51.556;6.832;2023-10-09T19:29:41;18.10;99.90
47114;DHT22;32867;51.556;6.832;2023-10-09T19:34:41;18.10;99.90
47114;DHT22;32867;51.556;6.832;2023-10-09T19:39:42;18.00;99.90
47114;DHT22;32867;51.556;6.832;2023-10-09T19:44:42;18.00;99.90
47114;DHT22;32867;51.556;6.832;2023-10-09T19:49:43;17.80;99.90
47114;DHT22;32867;51.556;6.832;2023-10-09T19:54:45;17.90;99.90
47114;DHT22;32867;51.556;6.832;2023-10-09T19:59:46;17.80;99.90
47114;DHT22;32867;51.556;6.832;2023-10-09T20:04:48;17.80;99.90
47114;DHT22;32867;51.556;6.832;2023-10-09T20:09:50;17.60;99.90
47114;DHT22;32867;51.556;6.832;2023-10-09T20:14:52;17.70;99.90
47114;DHT22;32867;51.556;6.832;2023-10-09T20:19:53;17.50;99.90
47114;DHT22;32867;51.556;6.832;2023-10-09T20:24:54;17.40;99.90
47114;DHT22;32867;51.556;6.832;2023-10-09T20:29:55;17.40;99.90
47114;DHT22;32867;51.556;6.832;2023-10-09T20:34:56;17.60;99.90
47114;DHT22;32867;51.556;6.832;2023-10-09T20:39:57;17.60;99.90
47114;DHT22;32867;51.556;6.832;2023-10-09T20:44:59;17.60;99.90
47114;DHT22;32867;51.556;6.832;2023-10-09T20:50:01;17.50;99.90
47114;DHT22;32867;51.556;6.832;2023-10-09T20:55:01;17.50;99.90
47114;DHT22;32867;51.556;6.832;2023-10-09T21:00:02;17.40;99.90
47114;DHT22;32867;51.556;6.832;2023-10-09T21:05:04;17.50;99.90
47114;DHT22;32867;51.556;6.832;2023-10-09T21:10:05;17.40;99.90
47114;DHT22;32867;51.556;6.832;2023-10-09T21:15:07;17.60;99.90
47114;DHT22;32867;51.556;6.832;2023-10-09T21:20:11;17.40;99.90
47114;DHT22;32867;51.556;6.832;2023-10-09T21:25:16;17.40;99.90
47114;DHT22;32867;51.556;6.832;2023-10-09T21:30:21;17.60;99.90
47114;DHT22;32867;51.556;6.832;2023-10-09T21:35:24;17.50;99.90
47114;DHT22;32867;51.556;6.832;2023-10-09T21:40:28;17.60;99.90
47114;DHT22;32867;51.556;6.832;2023-10-09T21:45:29;17.60;99.90
47114;DHT22;32867;51.556;6.832;2023-10-09T21:50:30;17.30;99.90
47114;DHT22;32867;51.556;6.832;2023-10-09T21:55:31;17.10;99.90
47114;DHT22;32867;51.556;6.832;2023-10-09T22:00:32;16.90;99.90
47114;DHT22;32867;51.556;6.832;2023-10-09T22:05:39;16.90;99.90
47114;DHT22;32867;51.556;6.832;2023-10-09T22:10:43;16.90;99.90
47114;DHT22;32867;51.556;6.832;2023-10-09T22:15:47;16.90;99.90
47114;DHT22;32867;51.556;6.832;2023-10-09T22:20:49;16.90;99.90
47114;DHT22;32867;51.556;6.832;2023-10-09T22:25:50;16.90;99.90
47114;DHT22;32867;51.556;6.832;2023-10-09T22:31:01;17.10;99.90
47114;DHT22;32867;51.556;6.832;2023-10-09T22:36:04;16.90;99.90
47114;DHT22;32867;51.556;6.832;2023-10-09T22:41:05;17.10;99.90
47114;DHT22;32867;51.556;6.832;2023-10-09T22:46:07;17.10;99.90
47114;DHT22;32867;51.556;6.832;2023-10-09T22:51:08;17.00;99.90
47114;DHT22;32867;51.556;6.832;2023-10-09T22:56:11;17.00;99.90
47114;DHT22;32867;51.556;6.832;2023-10-09T23:01:17;16.90;99.90
47114;DHT22;32867;51.556;6.832;2023-10-09T23:06:26;16.70;99.90
47114;DHT22;32867;51.556;6.832;2023-10-09T23:11:41;16.80;99.90
47114;DHT22;32867;51.556;6.832;2023-10-09T23:16:42;16.80;99.90
47114;DHT22;32867;51.556;6.832;2023-10-09T23:21:51;16.90;99.90
47114;DHT22;32867;51.556;6.832;2023-10-09T23:27:10;17.00;99.90
47114;DHT22;32867;51.556;6.832;2023-10-09T23:32:26;16.90;99.90
47114;DHT22;32867;51.556;6.832;2023-10-09T23:37:32;16.80;99.90
47114;DHT22;32867;51.556;6.832;2023-10-09T23:43:02;16.70;99.90
47114;DHT22;32867;51.556;6.832;2023-10-09T23:48:03;16.70;99.90
47114;DHT22;32867;51.556;6.832;2023-10-09T23:53:11;16.70;99.90
47114;DHT22;32867;51.556;6.832;2023-10-09T23:58:15;16.60;99.90
